Syosyun — JD2406 — position and weather

sailwx.info

Track history (hours):
 
Tides and Currents Weather Stations Pressure Air Temp Water Temp Dewpoint Dewpoint Depression Visibility Wind Speed Wind Dir Waves Ship Positions

Syosyun

Last reported at 2014-Oct-21 12:32 UTC. Time now 2014-Oct-21 21:37 UTC.
Position N 34°35' E 134°51'.

Length 74 m; draft 3.8 m.

Type: Cargo ship. MMSI: 431000201.

Date/timePositionNaut miles runAvg speedWind from/ knotsBaromVisibWave heightAir tempDewpointWater temp
2014-Oct-21 12:32N 34°35' E 134°51'1211.6
2014-Oct-21 11:32N 34°36' E 135°05'1212.1
2014-Oct-21 10:33N 34°38' E 135°19'7 6.9
2014-Oct-21 09:30N 34°39' E 135°28'0 0.0
2014-Oct-21 08:30N 34°39' E 135°28'0 0.0
2014-Oct-21 03:30N 34°39' E 135°28'0 0.0
2014-Oct-21 02:30N 34°39' E 135°28'0 0.0
2014-Oct-21 01:12N 34°39' E 135°28'0 0.0
2014-Oct-21 00:24N 34°39' E 135°28'0 0.0
2014-Oct-20 23:30N 34°39' E 135°28'0 0.0
2014-Oct-20 22:30N 34°39' E 135°28'0 0.0
2014-Oct-20 21:24N 34°39' E 135°28'0 0.0
2014-Oct-20 20:30N 34°39' E 135°28'0 0.0
2014-Oct-20 19:24N 34°39' E 135°28'0 0.0
2014-Oct-20 18:30N 34°39' E 135°28'0 0.0
2014-Oct-20 17:30N 34°39' E 135°28'0 0.0
2014-Oct-20 16:30N 34°39' E 135°28'0 0.0
2014-Oct-20 15:30N 34°39' E 135°28'0 0.0
2014-Oct-20 14:24N 34°39' E 135°28'0 0.0
2014-Oct-20 13:30N 34°39' E 135°28'0 0.0
2014-Oct-20 12:18N 34°39' E 135°28'0 0.0
2014-Oct-20 11:30N 34°39' E 135°28'0 0.0
2014-Oct-20 10:30N 34°39' E 135°28'0 0.0
2014-Oct-20 09:30N 34°39' E 135°28'0 0.0
2014-Oct-20 08:24N 34°39' E 135°28'0 0.0
2014-Oct-20 07:30N 34°39' E 135°28'0 0.0
2014-Oct-20 06:24N 34°39' E 135°28'4 4.5
2014-Oct-20 05:33N 34°38' E 135°23'1 1.0
2014-Oct-20 04:28N 34°37' E 135°23'0 0.0
2014-Oct-20 03:28N 34°37' E 135°23'0 0.0
2014-Oct-20 02:28N 34°37' E 135°23'0 0.0
2014-Oct-20 01:22N 34°37' E 135°23'2 2.9
2014-Oct-20 00:33N 34°35' E 135°23'3 0.1
2014-Oct-19 01:33N 34°32' E 135°24'1010.3
2014-Oct-19 00:33N 34°27' E 135°13'1111.1
2014-Oct-18 23:33N 34°19' E 135°04'1111.2
2014-Oct-18 22:33N 34°08' E 135°02'  
Track history (hours):
 
Tides and Currents Weather Stations Pressure Air Temp Water Temp Dewpoint Dewpoint Depression Visibility Wind Speed Wind Dir Waves Ship Positions

Syosyun

Last reported at 2014-Oct-21 12:32 UTC. Time now 2014-Oct-21 21:37 UTC.
Position N 34°35' E 134°51'.

Length 74 m; draft 3.8 m.

Type: Cargo ship. MMSI: 431000201.

Date/timePositionNaut miles runAvg speedWind from/ knotsBaromVisibWave heightAir tempDewpointWater temp
2014-Oct-21 12:32N 34°35' E 134°51'1211.6
2014-Oct-21 11:32N 34°36' E 135°05'1212.1
2014-Oct-21 10:33N 34°38' E 135°19'7 6.9
2014-Oct-21 09:30N 34°39' E 135°28'0 0.0
2014-Oct-21 08:30N 34°39' E 135°28'0 0.0
2014-Oct-21 03:30N 34°39' E 135°28'0 0.0
2014-Oct-21 02:30N 34°39' E 135°28'0 0.0
2014-Oct-21 01:12N 34°39' E 135°28'0 0.0
2014-Oct-21 00:24N 34°39' E 135°28'0 0.0
2014-Oct-20 23:30N 34°39' E 135°28'0 0.0
2014-Oct-20 22:30N 34°39' E 135°28'0 0.0
2014-Oct-20 21:24N 34°39' E 135°28'0 0.0
2014-Oct-20 20:30N 34°39' E 135°28'0 0.0
2014-Oct-20 19:24N 34°39' E 135°28'0 0.0
2014-Oct-20 18:30N 34°39' E 135°28'0 0.0
2014-Oct-20 17:30N 34°39' E 135°28'0 0.0
2014-Oct-20 16:30N 34°39' E 135°28'0 0.0
2014-Oct-20 15:30N 34°39' E 135°28'0 0.0
2014-Oct-20 14:24N 34°39' E 135°28'0 0.0
2014-Oct-20 13:30N 34°39' E 135°28'0 0.0
2014-Oct-20 12:18N 34°39' E 135°28'0 0.0
2014-Oct-20 11:30N 34°39' E 135°28'0 0.0
2014-Oct-20 10:30N 34°39' E 135°28'0 0.0
2014-Oct-20 09:30N 34°39' E 135°28'0 0.0
2014-Oct-20 08:24N 34°39' E 135°28'0 0.0
2014-Oct-20 07:30N 34°39' E 135°28'0 0.0
2014-Oct-20 06:24N 34°39' E 135°28'4 4.5
2014-Oct-20 05:33N 34°38' E 135°23'1 1.0
2014-Oct-20 04:28N 34°37' E 135°23'0 0.0
2014-Oct-20 03:28N 34°37' E 135°23'0 0.0
2014-Oct-20 02:28N 34°37' E 135°23'0 0.0
2014-Oct-20 01:22N 34°37' E 135°23'2 2.9
2014-Oct-20 00:33N 34°35' E 135°23'3 0.1
2014-Oct-19 01:33N 34°32' E 135°24'1010.3
2014-Oct-19 00:33N 34°27' E 135°13'1111.1
2014-Oct-18 23:33N 34°19' E 135°04'1111.2
2014-Oct-18 22:33N 34°08' E 135°02'  

Dump ship's entire track history